CYSC

Sherbrooke Airport

ICAO Code CYSC
IATA Code YSC
Name Sherbrooke Airport
Location Sherbrooke, Quebec, CA
Elevation 792 Feet / 241.4 Meters
Latitude 45.43861111
Longitude -71.69138889
METAR CYSC 080700Z AUTO 07005KT 9SM CLR 03/M02 A2991 RMK SLP134
Extra information Display Charts and CFS
Display NOTAMS
Runway Length Width Surface Elevation
13 5901 ft 150 ft ASP 754 ft
31 5901 ft 150 ft ASP 792 ft